Time;durP1;ratioP1;P1;durP2;ratioP2;P2;SDS_P1;SDS_P2;PMS_P1;PMS_P2;Temp;Humidity;BMP_temperature;BMP_pressure;BME280_temperature;BME280_humidity;BME280_pressure;Samples;Min_cycle;Max_cycle;Signal;HPM_P1;HPM_P2
2021/08/23 00:00:17;;;;;;;13.05;4.05;;;;;;;16.50;63.97;99789.50;4859528;29;20056;-82
2021/08/23 00:02:43;;;;;;;12.17;3.67;;;;;;;16.51;63.90;99782.81;4859477;29;20049;-82
2021/08/23 00:05:12;;;;;;;13.02;3.80;;;;;;;16.43;63.65;99779.03;4859555;29;20665;-82
2021/08/23 00:07:39;;;;;;;8.98;4.25;;;;;;;16.51;63.78;99791.09;4858297;29;20106;-82
2021/08/23 00:10:05;;;;;;;15.88;4.03;;;;;;;16.41;63.89;99781.31;4859140;29;20137;-82
2021/08/23 00:12:32;;;;;;;9.27;4.32;;;;;;;16.57;63.59;99790.56;4859637;29;20052;-82
2021/08/23 00:14:58;;;;;;;10.13;3.80;;;;;;;16.48;63.84;99781.56;4859562;29;20041;-83
2021/08/23 00:17:25;;;;;;;11.27;3.80;;;;;;;16.52;63.57;99785.22;4858272;29;20077;-82
2021/08/23 00:19:51;;;;;;;12.43;3.70;;;;;;;16.57;63.85;99778.72;4859735;29;20088;-82
2021/08/23 00:22:33;;;;;;;8.10;3.78;;;;;;;16.66;63.82;99793.22;4875456;29;20060;-82
2021/08/23 00:25:00;;;;;;;7.07;3.63;;;;;;;16.62;63.55;99787.59;4881539;29;20515;-82
2021/08/23 00:27:30;;;;;;;11.48;3.92;;;;;;;16.67;63.88;99800.34;4881503;29;20045;-82
2021/08/23 00:30:08;;;;;;;9.18;4.25;;;;;;;16.68;63.13;99794.47;4880580;29;20173;-87
2021/08/23 00:32:35;;;;;;;7.68;3.92;;;;;;;16.65;62.92;99786.91;4868361;29;20105;-82
2021/08/23 00:35:01;;;;;;;9.87;3.90;;;;;;;16.60;62.48;99778.81;4862926;29;20065;-82
2021/08/23 00:37:27;;;;;;;9.32;3.75;;;;;;;16.56;63.24;99777.91;4862641;29;20415;-82
2021/08/23 00:39:53;;;;;;;7.38;3.78;;;;;;;16.68;63.33;99797.22;4862838;29;20049;-92
2021/08/23 00:42:19;;;;;;;12.27;4.22;;;;;;;16.64;63.54;99792.75;4869378;29;20048;-82
2021/08/23 00:44:46;;;;;;;9.98;3.80;;;;;;;16.60;63.75;99784.34;4881604;29;20048;-82
2021/08/23 00:47:13;;;;;;;10.02;3.85;;;;;;;16.65;63.34;99803.47;4881386;29;20164;-82
2021/08/23 00:49:39;;;;;;;16.57;3.93;;;;;;;16.66;63.38;99799.56;4881352;29;20136;-81
2021/08/23 00:52:07;;;;;;;;;;;;;;;16.74;63.85;99819.91;4881256;29;20509;-82
2021/08/23 00:54:34;;;;;;;11.63;4.38;;;;;;;16.74;64.28;99816.34;4881949;29;19923;-81
2021/08/23 00:57:06;;;;;;;9.00;3.80;;;;;;;16.77;64.23;99826.75;4881411;29;20053;-91
2021/08/23 00:59:34;;;;;;;6.88;3.42;;;;;;;16.72;64.42;99829.69;4881266;29;20075;-82
2021/08/23 01:02:32;;;;;;;17.27;5.07;;;;;;;16.72;64.92;99833.28;4880950;29;20049;-82
2021/08/23 01:05:30;;;;;;;9.95;3.92;;;;;;;16.63;65.04;99824.28;4872411;29;20042;-82
2021/08/23 01:08:01;;;;;;;28.70;4.93;;;;;;;16.58;65.11;99822.50;4808279;29;20054;-82
2021/08/23 01:10:33;;;;;;;11.98;4.65;;;;;;;16.43;65.23;99807.41;4823357;29;20111;-94
2021/08/23 01:13:01;;;;;;;21.10;4.63;;;;;;;16.53;65.40;99825.50;4823180;29;20233;-82
2021/08/23 01:15:27;;;;;;;13.85;4.63;;;;;;;16.55;65.46;99833.44;4823383;29;20110;-82
2021/08/23 01:17:55;;;;;;;17.92;4.63;;;;;;;16.54;65.68;99834.59;4823034;29;20058;-82
2021/08/23 01:20:20;;;;;;;12.38;4.57;;;;;;;16.51;65.62;99835.25;4823092;29;20481;-82
2021/08/23 01:22:50;;;;;;;13.70;4.60;;;;;;;16.37;66.15;99825.34;4822665;29;20509;-82
2021/08/23 01:25:23;;;;;;;18.83;4.80;;;;;;;16.26;66.18;99823.31;4833213;29;20058;-82
2021/08/23 01:28:03;;;;;;;11.85;4.60;;;;;;;16.27;66.50;99833.22;4841194;29;20133;-82
2021/08/23 01:30:39;;;;;;;17.67;4.82;;;;;;;16.23;66.54;99835.06;4841401;29;20058;-82
2021/08/23 01:33:06;;;;;;;27.60;4.80;;;;;;;16.28;65.83;99845.88;4840184;29;20142;-82
2021/08/23 01:35:32;;;;;;;18.42;4.75;;;;;;;16.26;65.72;99853.66;4839794;29;20107;-82
2021/08/23 01:37:59;;;;;;;;;;;;;;;16.25;66.20;99846.53;4841156;29;20604;-82
2021/08/23 01:40:25;;;;;;;13.93;4.50;;;;;;;16.21;65.92;99855.50;4841095;29;20014;-81
2021/08/23 01:42:54;;;;;;;11.32;4.53;;;;;;;16.18;66.07;99844.31;4840889;29;20081;-82
2021/08/23 01:45:20;;;;;;;22.77;4.80;;;;;;;16.17;66.36;99853.75;4861037;29;20061;-82
2021/08/23 01:47:46;;;;;;;11.55;4.32;;;;;;;16.15;66.39;99856.84;4861536;29;20052;-82
2021/08/23 01:50:12;;;;;;;17.05;4.68;;;;;;;16.13;66.37;99866.63;4861594;29;20049;-82
2021/08/23 01:52:37;;;;;;;18.95;4.95;;;;;;;16.04;66.78;99854.84;4860243;29;20046;-82
2021/08/23 01:55:04;;;;;;;16.92;4.38;;;;;;;16.10;66.13;99859.81;4861742;29;20045;-82
2021/08/23 01:57:30;;;;;;;15.48;4.53;;;;;;;16.06;66.99;99858.03;4862474;29;20512;-82
2021/08/23 01:59:56;;;;;;;11.00;4.60;;;;;;;15.95;67.30;99874.19;4862477;29;20053;-81
2021/08/23 02:02:22;;;;;;;11.13;4.90;;;;;;;15.83;67.43;99857.59;4861473;29;20082;-82
2021/08/23 02:04:48;;;;;;;14.60;4.07;;;;;;;15.79;67.34;99846.41;4860397;29;20041;-82
2021/08/23 02:07:16;;;;;;;16.98;4.85;;;;;;;15.78;68.13;99860.53;4867131;29;20076;-82
2021/08/23 02:09:42;;;;;;;15.27;5.47;;;;;;;15.76;68.08;99863.63;4879967;29;20056;-81
2021/08/23 02:12:10;;;;;;;13.00;4.78;;;;;;;15.61;68.87;99869.69;4878695;29;20059;-81
2021/08/23 02:14:36;;;;;;;19.13;5.00;;;;;;;15.55;69.23;99871.00;4879994;29;20162;-82
2021/08/23 02:17:03;;;;;;;17.95;5.03;;;;;;;15.48;69.46;99864.06;4878202;29;20053;-81
2021/08/23 02:19:29;;;;;;;17.70;4.97;;;;;;;15.48;69.06;99868.78;4879312;29;20060;-82
2021/08/23 02:21:57;;;;;;;20.83;5.00;;;;;;;15.39;69.34;99866.06;4879495;29;20055;-82
2021/08/23 02:24:24;;;;;;;14.65;6.13;;;;;;;15.30;69.87;99870.81;4879662;29;20045;-82
2021/08/23 02:26:50;;;;;;;12.50;5.32;;;;;;;15.18;70.16;99873.44;4878587;29;20045;-81
2021/08/23 02:29:16;;;;;;;15.68;4.85;;;;;;;15.14;70.29;99872.50;4877818;29;20045;-82
2021/08/23 02:31:43;;;;;;;17.20;4.90;;;;;;;15.16;69.99;99876.53;4880126;29;20044;-82
2021/08/23 02:34:10;;;;;;;;;;;;;;;15.17;69.65;99874.59;4880421;29;20135;-81
2021/08/23 02:36:36;;;;;;;11.33;4.37;;;;;;;15.12;69.71;99877.53;4878729;29;20056;-81
2021/08/23 02:39:04;;;;;;;13.73;5.15;;;;;;;15.09;69.70;99878.97;4873164;29;20045;-82
2021/08/23 02:41:31;;;;;;;16.02;4.63;;;;;;;14.97;69.92;99867.88;4861389;29;20054;-82
2021/08/23 02:43:57;;;;;;;12.55;5.18;;;;;;;15.02;69.93;99878.69;4861346;29;20046;-82
2021/08/23 02:46:23;;;;;;;19.95;4.43;;;;;;;14.96;70.09;99875.28;4861436;29;20419;-82
2021/08/23 02:48:49;;;;;;;14.02;4.45;;;;;;;15.01;69.79;99880.63;4862374;29;20057;-81
2021/08/23 02:51:16;;;;;;;14.75;4.68;;;;;;;15.03;69.47;99875.63;4860538;29;20084;-82
2021/08/23 02:53:43;;;;;;;18.55;4.93;;;;;;;15.03;69.61;99877.53;4861359;29;20069;-81
2021/08/23 02:56:10;;;;;;;19.48;5.82;;;;;;;15.02;69.91;99885.00;4860768;29;20041;-82
2021/08/23 02:58:37;;;;;;;20.70;6.03;;;;;;;15.06;69.87;99881.59;4861129;29;20466;-81
2021/08/23 03:01:03;;;;;;;28.20;5.13;;;;;;;15.04;69.85;99879.19;4861667;29;20041;-82
2021/08/23 03:03:29;;;;;;;24.63;5.90;;;;;;;15.04;69.80;99881.94;4861439;29;20082;-82
2021/08/23 03:05:56;;;;;;;26.02;6.38;;;;;;;15.04;69.27;99881.94;4860137;29;20045;-82
2021/08/23 03:08:22;;;;;;;13.57;4.82;;;;;;;15.08;69.31;99891.13;4876648;29;20529;-82
2021/08/23 03:10:51;;;;;;;15.30;5.18;;;;;;;15.04;69.37;99884.69;4879391;29;20040;-82
2021/08/23 03:13:17;;;;;;;15.10;5.13;;;;;;;15.09;69.49;99897.44;4877918;29;20056;-81
2021/08/23 03:15:43;;;;;;;11.43;5.70;;;;;;;15.10;69.63;99890.78;4879635;29;20045;-82
2021/08/23 03:18:08;;;;;;;18.52;5.15;;;;;;;15.06;69.46;99887.91;4867312;29;20508;-82
2021/08/23 03:20:35;;;;;;;17.65;6.25;;;;;;;15.10;69.20;99897.13;4860937;29;20500;-82
2021/08/23 03:23:01;;;;;;;19.13;5.63;;;;;;;15.09;69.00;99891.94;4859980;29;20144;-82
2021/08/23 03:25:27;;;;;;;18.38;5.95;;;;;;;15.07;68.97;99895.03;4860074;29;20065;-82
2021/08/23 03:27:53;;;;;;;15.98;5.53;;;;;;;15.04;68.93;99890.19;4861292;29;20435;-82
2021/08/23 03:30:19;;;;;;;14.35;4.85;;;;;;;15.11;68.90;99896.00;4860056;29;20133;-82
2021/08/23 03:32:45;;;;;;;19.40;5.47;;;;;;;14.98;68.60;99870.28;4860132;29;20049;-82
2021/08/23 03:35:11;;;;;;;14.45;4.22;;;;;;;15.00;67.80;99878.22;4859099;29;20389;-82
2021/08/23 03:37:37;;;;;;;15.43;4.30;;;;;;;15.18;68.08;99899.03;4859080;29;20102;-81
2021/08/23 03:40:06;;;;;;;10.85;4.50;;;;;;;15.12;67.48;99880.28;4860105;29;20049;-88
2021/08/23 03:42:31;;;;;;;13.85;4.10;;;;;;;15.20;67.39;99891.28;4859743;29;20109;-82
2021/08/23 03:44:57;;;;;;;17.27;4.03;;;;;;;15.30;67.01;99898.38;4859751;29;20049;-82
2021/08/23 03:47:26;;;;;;;14.90;4.35;;;;;;;15.31;66.12;99890.91;4859853;29;20053;-83
2021/08/23 03:49:53;;;;;;;13.27;4.32;;;;;;;15.39;66.35;99903.81;4859556;29;20044;-82
2021/08/23 03:52:20;;;;;;;10.60;3.92;;;;;;;15.39;65.71;99895.56;4859754;29;20045;-82
2021/08/23 03:54:49;;;;;;;7.97;3.95;;;;;;;15.39;65.47;99895.56;4858370;29;20084;-82
2021/08/23 03:57:14;;;;;;;15.27;4.13;;;;;;;15.47;66.20;99903.00;4859694;29;20073;-84
2021/08/23 03:59:40;;;;;;;26.63;5.18;;;;;;;15.49;65.56;99909.75;4866930;29;20419;-82
2021/08/23 04:02:06;;;;;;;13.57;3.65;;;;;;;15.55;65.13;99910.38;4876738;29;20447;-83
2021/08/23 04:04:32;;;;;;;10.80;3.85;;;;;;;15.56;64.76;99905.69;4877960;29;20071;-82
2021/08/23 04:06:58;;;;;;;13.13;4.00;;;;;;;15.58;64.86;99897.91;4878033;29;20045;-82
2021/08/23 04:09:24;;;;;;;9.82;4.40;;;;;;;15.70;64.96;99909.06;4875659;29;20045;-82
2021/08/23 04:11:50;;;;;;;6.38;3.80;;;;;;;15.67;65.02;99902.25;4878198;29;20049;-83
2021/08/23 04:14:17;;;;;;;11.40;3.95;;;;;;;15.72;65.16;99904.00;4878232;29;20422;-82
2021/08/23 04:16:43;;;;;;;14.00;4.57;;;;;;;15.78;63.63;99913.72;4878456;29;20052;-92
2021/08/23 04:19:09;;;;;;;11.02;3.95;;;;;;;15.81;63.54;99913.03;4878100;29;20097;-83
2021/08/23 04:21:35;;;;;;;8.63;3.85;;;;;;;15.87;63.80;99905.41;4862791;29;20116;-82
2021/08/23 04:24:01;;;;;;;13.77;3.97;;;;;;;16.06;63.91;99922.31;4859252;29;20054;-82
2021/08/23 04:26:27;;;;;;;15.40;4.25;;;;;;;16.10;63.79;99911.41;4858125;29;20049;-82
2021/08/23 04:28:53;;;;;;;20.93;4.70;;;;;;;16.15;63.11;99917.53;4859606;29;20048;-82
2021/08/23 04:31:19;;;;;;;20.80;4.53;;;;;;;16.33;63.11;99918.22;4860514;29;20223;-89
2021/08/23 04:33:46;;;;;;;19.27;4.20;;;;;;;16.36;62.34;99916.75;4859428;29;20444;-93
2021/08/23 04:36:13;;;;;;;;;;;;;;;16.40;62.71;99918.47;4858672;29;20423;-82
2021/08/23 04:38:41;;;;;;;16.77;3.78;;;;;;;16.38;61.84;99914.44;4859227;29;19923;-82
2021/08/23 04:41:07;;;;;;;12.13;3.58;;;;;;;16.40;61.72;99912.94;4859498;29;20081;-83
2021/08/23 04:43:34;;;;;;;10.85;4.07;;;;;;;16.49;62.55;99909.31;4859655;29;20132;-82
2021/08/23 04:46:00;;;;;;;;;;;;;;;16.61;62.57;99914.88;4860079;29;20159;-82
2021/08/23 04:48:29;;;;;;;14.80;3.17;;;;;;;16.65;61.32;99921.34;4859756;29;20347;-82
2021/08/23 04:50:55;;;;;;;16.10;3.92;;;;;;;16.73;60.37;99916.91;4859419;29;20193;-83
2021/08/23 04:53:22;;;;;;;8.68;3.22;;;;;;;16.72;60.27;99906.97;4859153;29;20088;-82
2021/08/23 04:55:48;;;;;;;11.25;3.13;;;;;;;16.87;59.78;99921.00;4858244;29;20116;-83
2021/08/23 04:58:14;;;;;;;12.13;3.75;;;;;;;16.92;58.42;99922.75;4859485;29;20034;-82
2021/08/23 05:00:40;;;;;;;11.52;3.60;;;;;;;17.00;59.40;99918.28;4859157;29;20078;-82
2021/08/23 05:03:09;;;;;;;14.45;4.07;;;;;;;16.99;60.96;99916.69;4870362;29;20147;-82
2021/08/23 05:05:35;;;;;;;16.85;5.05;;;;;;;17.00;60.69;99908.03;4877679;29;20083;-82
2021/08/23 05:08:02;;;;;;;18.08;4.60;;;;;;;17.13;60.58;99919.91;4879423;29;20117;-89
2021/08/23 05:10:28;;;;;;;10.93;4.30;;;;;;;17.25;59.48;99931.00;4863970;29;20388;-79
2021/08/23 05:12:55;;;;;;;14.77;3.80;;;;;;;17.27;59.95;99919.59;4873483;29;20044;-79
2021/08/23 05:15:23;;;;;;;15.10;4.22;;;;;;;17.30;59.63;99927.22;4862043;29;20457;-80
2021/08/23 05:17:50;;;;;;;;;;;;;;;17.38;60.30;99929.03;4862558;29;20431;-80
2021/08/23 05:20:16;;;;;;;12.00;4.47;;;;;;;17.52;59.65;99924.00;4862102;29;19930;-79
2021/08/23 05:22:42;;;;;;;9.57;4.22;;;;;;;17.67;59.28;99927.22;4862657;29;20053;-79
2021/08/23 05:25:08;;;;;;;27.23;3.90;;;;;;;17.67;59.24;99918.94;4862093;29;20128;-80
2021/08/23 05:27:36;;;;;;;17.02;4.30;;;;;;;17.72;58.02;99924.25;4862114;29;20077;-88
2021/08/23 05:30:05;;;;;;;12.87;6.03;;;;;;;17.72;58.56;99921.47;4862115;29;20136;-84
2021/08/23 05:32:32;;;;;;;17.27;4.30;;;;;;;17.76;56.32;99927.94;4860712;29;20053;-85
2021/08/23 05:34:58;;;;;;;14.13;3.80;;;;;;;17.89;57.10;99937.88;4861668;29;20049;-84
2021/08/23 05:37:25;;;;;;;12.75;3.80;;;;;;;18.26;57.48;99929.50;4861602;29;20457;-89
2021/08/23 05:39:51;;;;;;;22.07;3.47;;;;;;;18.13;54.35;99909.34;4845081;29;20038;-88
2021/08/23 05:42:18;;;;;;;6.05;2.67;;;;;;;18.36;57.32;99925.44;4854546;29;20045;-88
2021/08/23 05:44:44;;;;;;;9.83;2.80;;;;;;;18.51;54.65;99930.25;4867063;29;20045;-89
2021/08/23 05:47:11;;;;;;;8.40;3.60;;;;;;;18.48;53.52;99933.72;4865534;29;20445;-87
2021/08/23 05:49:36;;;;;;;25.63;4.70;;;;;;;18.51;53.22;99942.13;4868186;29;20411;-87
2021/08/23 05:52:04;;;;;;;13.73;3.03;;;;;;;18.59;52.97;99922.94;4858069;29;20049;-88
2021/08/23 05:54:29;;;;;;;16.17;3.15;;;;;;;18.39;50.68;99905.38;4866046;29;20132;-88
2021/08/23 05:56:57;;;;;;;16.17;2.63;;;;;;;18.72;55.57;99916.22;4863082;29;20128;-88
2021/08/23 05:59:23;;;;;;;10.93;2.65;;;;;;;18.72;53.07;99907.94;4848298;29;20596;-87
2021/08/23 06:01:56;;;;;;;11.38;2.65;;;;;;;18.98;53.33;99927.66;4865719;29;20052;-86
2021/08/23 06:04:23;;;;;;;9.85;2.63;;;;;;;18.74;52.19;99894.50;4861588;29;20543;-88
2021/08/23 06:06:49;;;;;;;9.02;2.85;;;;;;;18.93;50.71;99925.13;4847416;29;20084;-88
2021/08/23 06:09:19;;;;;;;27.08;2.85;;;;;;;18.76;50.22;99897.75;4865541;29;20073;-88
2021/08/23 06:11:47;;;;;;;8.77;2.40;;;;;;;18.82;49.80;99915.72;4866409;29;20076;-88
2021/08/23 06:14:16;;;;;;;5.68;2.42;;;;;;;18.76;50.21;99923.47;4851804;29;20041;-88
2021/08/23 06:16:42;;;;;;;6.78;2.47;;;;;;;18.89;51.45;99924.22;4867058;29;20056;-87
2021/08/23 06:19:10;;;;;;;3.95;2.20;;;;;;;18.89;50.69;99899.28;4851247;29;20077;-89
2021/08/23 06:21:35;;;;;;;5.90;2.50;;;;;;;19.48;49.34;99934.50;4866193;29;20124;-88
2021/08/23 06:24:02;;;;;;;6.17;2.20;;;;;;;19.30;49.41;99918.56;4865069;29;20882;-88
2021/08/23 06:26:28;;;;;;;14.07;2.75;;;;;;;19.35;49.88;99924.66;4865073;29;20467;-87
2021/08/23 06:28:54;;;;;;;;;;;;;;;19.44;49.25;99936.38;4870154;29;20565;-89
2021/08/23 06:31:20;;;;;;;5.60;2.00;;;;;;;19.55;48.10;99916.44;4863120;29;19924;-88
2021/08/23 06:33:47;;;;;;;14.13;2.07;;;;;;;19.62;46.72;99945.13;4864975;29;20045;-89
2021/08/23 06:36:13;;;;;;;6.80;1.90;;;;;;;19.46;46.78;99922.13;4863003;29;20603;-89
2021/08/23 06:38:39;;;;;;;6.97;2.00;;;;;;;19.64;49.59;99948.41;4848555;29;20131;-89
2021/08/23 06:41:04;;;;;;;11.07;2.10;;;;;;;19.57;47.07;99925.19;4863860;29;20499;-88
2021/08/23 06:43:31;;;;;;;;;;;;;;;19.51;45.88;99937.72;4864697;29;20056;-88
2021/08/23 06:45:57;;;;;;;6.63;1.50;;;;;;;19.16;45.89;99910.69;4864333;29;19924;-88
2021/08/23 06:48:23;;;;;;;12.20;2.33;;;;;;;19.27;45.52;99933.13;4864771;29;20226;-89
2021/08/23 06:50:49;;;;;;;4.80;1.70;;;;;;;19.04;45.94;99921.84;4866282;29;20128;-87
2021/08/23 06:53:15;;;;;;;5.53;1.70;;;;;;;18.96;47.46;99915.31;4878046;29;20045;-88
2021/08/23 06:55:41;;;;;;;8.13;2.13;;;;;;;19.05;45.59;99942.84;4863440;29;20049;-89
2021/08/23 06:58:07;;;;;;;27.17;1.90;;;;;;;18.95;47.32;99930.31;4862236;29;20045;-88
2021/08/23 07:00:33;;;;;;;12.30;2.47;;;;;;;19.10;45.97;99939.81;4870140;29;20290;-89
2021/08/23 07:03:00;;;;;;;4.93;2.10;;;;;;;19.22;46.36;99926.69;4856191;29;20507;-87
2021/08/23 07:05:26;;;;;;;7.57;2.13;;;;;;;19.46;46.01;99939.56;4865315;29;20068;-85
2021/08/23 07:07:54;;;;;;;6.50;1.70;;;;;;;19.70;44.13;99946.13;4859407;29;20075;-84
2021/08/23 07:10:20;;;;;;;8.02;1.85;;;;;;;19.81;43.20;99949.19;4858782;29;20124;-91
2021/08/23 07:12:47;;;;;;;11.57;1.77;;;;;;;19.73;42.60;99942.63;4859267;29;20081;-79
2021/08/23 07:15:13;;;;;;;9.67;2.00;;;;;;;19.78;44.13;99947.13;4857789;29;20081;-84
2021/08/23 07:17:39;;;;;;;6.73;1.90;;;;;;;20.42;45.25;99937.47;4856969;29;20045;-89
2021/08/23 07:20:05;;;;;;;14.73;1.90;;;;;;;20.75;44.05;99937.00;4860418;29;20045;-81
2021/08/23 07:22:31;;;;;;;2.97;1.73;;;;;;;20.65;44.40;99946.72;4864423;29;20060;-81
2021/08/23 07:24:59;;;;;;;6.03;1.50;;;;;;;20.72;43.91;99940.50;4869780;29;20045;-84
2021/08/23 07:27:25;;;;;;;4.93;1.53;;;;;;;20.75;43.23;99937.00;4870452;29;20059;-79
2021/08/23 07:29:51;;;;;;;6.22;1.75;;;;;;;20.67;41.45;99932.50;4853628;29;20298;-79
2021/08/23 07:32:17;;;;;;;5.68;1.70;;;;;;;21.08;44.32;99938.44;4855581;29;20057;-78
2021/08/23 07:34:44;;;;;;;3.03;1.67;;;;;;;21.18;42.75;99923.13;4858073;29;20049;-80
2021/08/23 07:37:14;;;;;;;3.83;1.75;;;;;;;21.28;41.84;99931.66;4863554;29;20041;-81
2021/08/23 07:39:41;;;;;;;9.35;1.90;;;;;;;21.37;41.93;99937.00;4861106;29;20121;-78
2021/08/23 07:42:10;;;;;;;8.30;1.63;;;;;;;21.39;41.80;99939.41;4862245;29;20332;-91
2021/08/23 07:44:36;;;;;;;3.67;1.73;;;;;;;21.66;41.52;99938.31;4852759;29;20128;-77
2021/08/23 07:47:03;;;;;;;5.95;1.90;;;;;;;21.55;40.75;99923.38;4853211;29;20503;-78
2021/08/23 07:49:28;;;;;;;31.48;3.88;;;;;;;21.17;38.61;99927.88;4857171;29;20045;-80
2021/08/23 07:51:54;;;;;;;12.93;2.37;;;;;;;20.83;40.42;99927.66;4856508;29;20045;-79
2021/08/23 07:54:20;;;;;;;5.17;1.90;;;;;;;20.92;42.68;99929.38;4855163;29;20048;-80
2021/08/23 07:56:47;;;;;;;;;;;;;;;20.77;40.92;99931.09;4856514;29;20092;-84
2021/08/23 07:59:12;;;;;;;7.32;1.70;;;;;;;20.79;42.14;99925.97;4859944;29;19923;-82
2021/08/23 08:01:39;;;;;;;6.45;1.95;;;;;;;20.69;42.44;99915.44;4857850;29;20068;-81
2021/08/23 08:04:04;;;;;;;6.03;1.80;;;;;;;20.68;39.94;99927.72;4863425;29;20044;-81
2021/08/23 08:06:30;;;;;;;5.73;2.00;;;;;;;20.69;40.72;99924.56;4852145;29;20478;-80
2021/08/23 08:09:02;;;;;;;8.43;1.92;;;;;;;20.64;41.70;99922.09;4849030;29;20041;-79
2021/08/23 08:11:28;;;;;;;10.48;2.10;;;;;;;20.80;44.39;99916.47;4860077;29;20068;-85
2021/08/23 08:13:57;;;;;;;8.52;1.85;;;;;;;20.91;44.35;99913.88;4862887;29;20051;-90
2021/08/23 08:16:23;;;;;;;9.00;2.33;;;;;;;21.42;43.82;99908.88;4856856;29;20240;-86
2021/08/23 08:18:49;;;;;;;10.93;2.10;;;;;;;21.43;43.19;99910.50;4860210;29;20058;-85
2021/08/23 08:21:16;;;;;;;20.25;2.33;;;;;;;21.57;40.41;99907.94;4872943;29;20045;-91
2021/08/23 08:23:42;;;;;;;9.43;1.97;;;;;;;21.27;37.68;99913.38;4859697;29;20068;-88
2021/08/23 08:26:09;;;;;;;;;;;;;;;21.29;39.82;99910.19;4859819;29;20151;-86
2021/08/23 08:28:35;;;;;;;11.63;1.93;;;;;;;21.30;41.62;99890.38;4850420;29;20503;-88
2021/08/23 08:31:02;;;;;;;4.38;1.98;;;;;;;21.94;39.69;99900.94;4871159;29;20308;-85
2021/08/23 08:33:28;;;;;;;;;;;;;;;21.82;39.33;99896.41;4856721;29;20078;-85
2021/08/23 08:35:58;;;;;;;8.48;1.85;;;;;;;21.43;37.69;99879.91;4856522;29;19980;-88
2021/08/23 08:38:25;;;;;;;8.55;1.83;;;;;;;21.55;36.71;99906.69;4860282;29;20055;-87
2021/08/23 08:40:52;;;;;;;4.82;1.88;;;;;;;21.55;42.35;99906.69;4860107;29;20057;-86
2021/08/23 08:43:18;;;;;;;9.82;1.90;;;;;;;21.81;39.79;99889.22;4849588;29;20423;-88
2021/08/23 08:45:44;;;;;;;4.73;1.70;;;;;;;22.06;38.16;99900.72;4863111;29;20041;-86
2021/08/23 08:48:10;;;;;;;4.50;1.70;;;;;;;22.34;38.00;99919.03;4858140;29;20052;-79
2021/08/23 08:50:37;;;;;;;11.68;1.70;;;;;;;22.51;40.54;99910.09;4859199;29;20077;-79
2021/08/23 08:53:06;;;;;;;7.05;2.00;;;;;;;22.57;36.94;99900.22;4854336;29;20114;-81
2021/08/23 08:55:36;;;;;;;5.47;1.67;;;;;;;22.65;37.07;99901.94;4856980;29;20089;-89
2021/08/23 08:58:05;;;;;;;5.30;1.80;;;;;;;22.62;35.15;99904.69;4857662;29;20938;-87
2021/08/23 09:00:36;;;;;;;9.32;1.85;;;;;;;22.43;36.31;99903.63;4860857;29;20041;-78
2021/08/23 09:03:04;;;;;;;4.50;1.60;;;;;;;22.58;35.95;99907.38;4856464;29;20135;-81
2021/08/23 09:05:41;;;;;;;;;;;;;;;22.44;37.39;99913.59;4863094;29;20045;-81
2021/08/23 09:08:08;;;;;;;14.88;2.13;;;;;;;22.37;35.44;99910.72;4859570;29;19923;-84
2021/08/23 09:10:39;;;;;;;5.00;1.77;;;;;;;22.22;35.23;99914.50;4858927;29;20037;-78
2021/08/23 09:13:09;;;;;;;23.85;2.25;;;;;;;22.15;36.60;99911.56;4863112;29;20048;-85
2021/08/23 09:15:37;;;;;;;6.35;1.75;;;;;;;22.38;38.21;99928.22;4867230;29;20045;-81
2021/08/23 09:18:08;;;;;;;5.65;1.80;;;;;;;22.31;40.66;99915.00;4862375;29;20045;-83
2021/08/23 09:20:37;;;;;;;13.25;2.20;;;;;;;21.99;37.13;99911.78;4862507;29;20149;-81
2021/08/23 09:23:14;;;;;;;13.50;2.17;;;;;;;22.25;39.11;99916.53;4861834;29;20057;-80
2021/08/23 09:25:44;;;;;;;6.78;2.40;;;;;;;22.20;37.35;99908.50;4862668;29;20053;-85
2021/08/23 09:28:10;;;;;;;6.70;1.80;;;;;;;21.95;36.68;99911.72;4866214;29;20049;-82
2021/08/23 09:30:37;;;;;;;11.95;3.80;;;;;;;21.79;36.92;99920.22;4863262;29;20057;-82
2021/08/23 09:33:06;;;;;;;7.38;1.95;;;;;;;21.75;38.28;99918.53;4868731;29;20052;-82
2021/08/23 09:35:38;;;;;;;8.55;2.33;;;;;;;21.62;37.57;99922.72;4860630;29;20074;-88
2021/08/23 09:38:10;;;;;;;24.63;3.00;;;;;;;21.55;38.26;99920.59;4856260;29;20051;-82
2021/08/23 09:40:36;;;;;;;23.83;2.95;;;;;;;21.60;39.47;99916.72;4853207;29;20059;-82
2021/08/23 09:43:13;;;;;;;;;;;;;;;21.70;38.04;99916.09;4852916;29;20109;-81
2021/08/23 09:45:47;;;;;;;43.47;4.35;;;;;;;21.67;37.85;99922.41;4852555;29;19924;-82
2021/08/23 09:53:53;;;;;;;14.23;2.17;;;;;;;21.58;39.38;99908.75;5320174;23;20287;-82
2021/08/23 09:56:21;;;;;;;6.47;1.90;;;;;;;21.64;39.10;99917.59;4887802;29;20659;-92
2021/08/23 09:58:47;;;;;;;13.07;2.78;;;;;;;21.63;37.22;99904.84;4891838;29;20099;-93
2021/08/23 10:01:14;;;;;;;40.67;2.72;;;;;;;21.88;40.16;99916.34;4897675;29;20040;-81
2021/08/23 10:03:40;;;;;;;14.27;2.57;;;;;;;21.99;36.15;99922.91;4894581;29;20105;-81
2021/08/23 10:06:10;;;;;;;30.37;3.83;;;;;;;22.17;37.69;99935.13;4884639;29;20309;-81
2021/08/23 10:08:38;;;;;;;19.80;3.00;;;;;;;22.27;37.90;99930.88;4900236;29;20062;-81
2021/08/23 10:11:05;;;;;;;9.20;2.05;;;;;;;22.27;37.57;99928.09;4898044;29;20044;-80
2021/08/23 10:13:31;;;;;;;9.70;2.22;;;;;;;22.07;36.57;99921.03;4892308;29;20045;-84
2021/08/23 10:15:57;;;;;;;5.87;1.93;;;;;;;22.08;37.79;99926.19;4902379;29;20064;-81
2021/08/23 10:18:26;;;;;;;7.40;2.20;;;;;;;22.37;36.88;99921.06;4895986;29;20301;-81
2021/08/23 10:20:52;;;;;;;6.10;1.98;;;;;;;22.73;38.97;99917.53;4901271;29;20139;-80
2021/08/23 10:23:29;;;;;;;8.13;2.28;;;;;;;22.80;37.25;99921.59;4894036;29;20068;-81
2021/08/23 10:25:56;;;;;;;9.13;1.75;;;;;;;22.76;37.97;99918.75;4907250;29;20036;-82
2021/08/23 10:28:35;;;;;;;10.98;2.22;;;;;;;22.80;38.40;99919.59;4893643;29;20048;-84
2021/08/23 10:31:22;;;;;;;5.57;1.75;;;;;;;22.91;36.93;99914.13;4889037;29;20415;-79
2021/08/23 10:33:49;;;;;;;14.52;1.58;;;;;;;22.97;34.86;99913.44;4898416;29;20059;-80
2021/08/23 10:36:18;;;;;;;11.25;2.30;;;;;;;23.18;36.22;99912.06;4897061;29;20045;-81
2021/08/23 10:38:46;;;;;;;12.35;2.10;;;;;;;23.19;36.50;99914.47;4916693;29;20040;-81
2021/08/23 10:41:26;;;;;;;11.25;2.40;;;;;;;23.22;33.82;99915.69;4901206;29;20050;-81
2021/08/23 10:43:58;;;;;;;5.45;1.95;;;;;;;23.42;36.11;99911.50;4895450;29;20044;-79
2021/08/23 10:46:38;;;;;;;6.65;1.77;;;;;;;23.48;34.86;99900.78;4868069;29;20070;-80
2021/08/23 10:49:15;;;;;;;6.15;1.83;;;;;;;23.84;33.66;99909.44;4871123;29;20068;-81
2021/08/23 10:52:10;;;;;;;2.55;1.70;;;;;;;23.52;33.32;99909.19;4885614;29;20027;-80
2021/08/23 10:54:42;;;;;;;4.55;1.80;;;;;;;23.37;34.47;99916.63;4872660;29;20525;-87
2021/08/23 10:57:10;;;;;;;11.25;1.90;;;;;;;23.55;34.20;99905.63;4885783;29;20541;-88
2021/08/23 10:59:53;;;;;;;5.13;1.73;;;;;;;23.80;33.88;99914.19;4873757;29;20546;-92
2021/08/23 11:02:26;;;;;;;9.77;2.03;;;;;;;23.96;34.00;99911.91;4876082;29;20075;-84
2021/08/23 11:04:58;;;;;;;3.78;1.60;;;;;;;23.88;34.25;99910.28;4884625;29;20080;-92
2021/08/23 11:07:28;;;;;;;8.52;1.92;;;;;;;24.06;34.18;99910.38;4878227;29;20041;-85
2021/08/23 11:10:12;;;;;;;18.95;2.47;;;;;;;23.88;33.83;99911.09;4872065;29;20451;-79
2021/08/23 11:12:54;;;;;;;10.65;1.90;;;;;;;23.76;35.10;99911.38;4866659;29;20045;-80
2021/08/23 11:15:30;;;;;;;5.15;1.80;;;;;;;23.56;34.22;99915.59;4869000;29;20120;-79
2021/08/23 11:18:07;;;;;;;8.93;2.10;;;;;;;23.41;34.53;99906.28;4864422;29;20070;-81
2021/08/23 11:20:39;;;;;;;10.02;1.98;;;;;;;23.57;35.09;99911.59;4886167;29;20131;-94
2021/08/23 11:23:16;;;;;;;14.35;2.17;;;;;;;23.70;34.55;99912.13;4882001;29;20067;-82
2021/08/23 11:25:47;;;;;;;15.88;2.35;;;;;;;23.59;35.02;99907.25;4875161;29;20664;-81
2021/08/23 11:28:15;;;;;;;9.30;1.90;;;;;;;23.36;33.92;99890.72;4880887;29;20045;-82
2021/08/23 11:30:49;;;;;;;16.30;2.10;;;;;;;23.24;34.22;99896.56;4878936;29;20418;-77
2021/08/23 11:33:46;;;;;;;10.25;2.28;;;;;;;23.21;34.45;99912.13;4877164;29;20076;-81
2021/08/23 11:36:24;;;;;;;15.50;2.50;;;;;;;23.00;34.63;99889.56;4785847;30;20063;-85
2021/08/23 11:38:51;;;;;;;26.88;3.22;;;;;;;23.06;34.96;99907.56;4792510;30;20066;-84
2021/08/23 11:41:17;;;;;;;8.97;2.33;;;;;;;23.16;34.61;99895.72;4793707;29;20117;-83